Terminal Aerodrome Forecast
Issued by NWS

Home | Current Version | Previous Version | Text Only | Print | Product List | Glossary On
Versions: 1 2 3 4 5 6 7 8 9 10 11 12 13
828
FTUS46 KSTO 081748
TAFRBL
TAF
KRBL 081748Z 0818/0918 VRB05KT 3SM -DZ BR OVC005
      TEMPO 0820/0824 14009KT 5SM -RA BR SCT005 OVC015
     FM090200 VRB03KT 4SM -DZ BR OVC004=

USA.gov is the U.S. government's official web portal to all federal, state and local government web resources and services.